createdAt,value
2023-03-26T00:01:36.979Z,9.29
2023-03-26T00:04:06.810Z,9.20
2023-03-26T00:06:39.234Z,9.07
2023-03-26T00:09:09.548Z,9.02
2023-03-26T00:11:36.595Z,9.02
2023-03-26T00:14:03.814Z,9.24
2023-03-26T00:16:32.311Z,9.24
2023-03-26T00:19:01.398Z,9.22
2023-03-26T00:21:30.635Z,9.03
2023-03-26T00:24:00.021Z,8.87
2023-03-26T00:26:27.776Z,8.77
2023-03-26T00:28:54.854Z,8.58
2023-03-26T00:31:22.250Z,8.54
2023-03-26T00:33:55.632Z,8.50
2023-03-26T00:36:25.679Z,8.58
2023-03-26T00:38:54.118Z,8.44
2023-03-26T00:41:24.943Z,8.37
2023-03-26T00:43:56.263Z,8.23
2023-03-26T00:46:24.695Z,8.22
2023-03-26T00:48:51.719Z,8.14
2023-03-26T00:51:20.766Z,8.20
2023-03-26T00:53:49.101Z,8.13
2023-03-26T00:56:16.927Z,7.99
2023-03-26T00:58:46.155Z,7.84
2023-03-26T01:01:16.243Z,7.92
2023-03-26T01:03:57.120Z,7.94
2023-03-26T01:06:36.024Z,7.90
2023-03-26T01:09:16.199Z,7.83
2023-03-26T01:11:44.211Z,7.73
2023-03-26T01:14:23.651Z,7.72
2023-03-26T01:16:58.994Z,7.68
2023-03-26T01:19:40.804Z,7.67
2023-03-26T01:22:13.069Z,7.66
2023-03-26T01:24:40.727Z,7.65
2023-03-26T01:27:28.167Z,7.57
2023-03-26T01:30:29.940Z,7.59
2023-03-26T01:33:06.833Z,7.48
2023-03-26T01:36:11.188Z,7.44
2023-03-26T01:38:53.332Z,7.58
2023-03-26T01:41:33.878Z,7.55
2023-03-26T01:44:03.122Z,7.62
2023-03-26T01:46:36.216Z,7.55
2023-03-26T01:49:12.933Z,7.75
2023-03-26T01:51:42.203Z,7.79
2023-03-26T01:54:19.732Z,7.81
2023-03-26T01:56:58.655Z,7.71
2023-03-26T01:59:56.312Z,7.75
2023-03-26T02:02:46.637Z,7.79
2023-03-26T02:05:29.542Z,7.72
2023-03-26T02:08:21.102Z,7.66
2023-03-26T02:10:52.588Z,7.75
2023-03-26T02:13:20.056Z,7.74
2023-03-26T02:16:04.686Z,7.84
2023-03-26T02:18:39.090Z,7.80
2023-03-26T02:21:11.054Z,7.78
2023-03-26T02:23:46.800Z,7.82
2023-03-26T02:26:18.397Z,8.04
2023-03-26T02:28:45.665Z,8.07
2023-03-26T02:31:13.903Z,7.98
2023-03-26T02:33:40.883Z,7.92
2023-03-26T02:36:08.692Z,7.83
2023-03-26T02:38:35.990Z,7.65
2023-03-26T02:41:04.093Z,7.56
2023-03-26T02:43:30.951Z,7.48
2023-03-26T02:45:58.311Z,7.43
2023-03-26T02:48:26.254Z,7.37
2023-03-26T02:50:54.808Z,7.38
2023-03-26T02:53:24.155Z,7.31
2023-03-26T02:55:51.208Z,7.26
2023-03-26T02:58:18.172Z,7.21
2023-03-26T03:00:46.899Z,7.12
2023-03-26T03:03:14.541Z,7.05
2023-03-26T03:05:43.351Z,6.97
2023-03-26T03:08:10.408Z,6.92
2023-03-26T03:10:37.900Z,6.83
2023-03-26T03:13:07.811Z,6.81
2023-03-26T03:15:35.143Z,6.74
2023-03-26T03:18:02.526Z,6.61
2023-03-26T03:20:30.467Z,6.52
2023-03-26T03:22:57.532Z,6.52
2023-03-26T03:25:26.086Z,6.43
2023-03-26T03:27:54.063Z,6.49
2023-03-26T03:30:21.108Z,6.37
2023-03-26T03:32:48.121Z,6.25
2023-03-26T03:35:15.476Z,6.27
2023-03-26T03:37:42.397Z,6.16
2023-03-26T03:40:11.082Z,6.17
2023-03-26T03:42:38.492Z,6.06
2023-03-26T03:45:06.620Z,6.17
2023-03-26T03:47:33.809Z,6.02
2023-03-26T03:50:00.910Z,6.12
2023-03-26T03:52:28.218Z,5.96
2023-03-26T03:54:57.732Z,5.94
2023-03-26T03:57:24.608Z,5.92
2023-03-26T03:59:51.546Z,5.84
2023-03-26T04:02:26.245Z,5.74
2023-03-26T04:04:54.401Z,5.67
2023-03-26T04:07:21.253Z,5.67
2023-03-26T04:09:48.407Z,5.45
2023-03-26T04:12:15.539Z,5.48
2023-03-26T04:14:42.669Z,5.38
2023-03-26T04:17:10.291Z,5.36
2023-03-26T04:19:37.483Z,5.35
2023-03-26T04:22:04.359Z,5.33
2023-03-26T04:24:38.371Z,5.19
2023-03-26T04:27:06.551Z,5.10
2023-03-26T04:29:42.966Z,5.29
2023-03-26T04:32:24.713Z,5.29
2023-03-26T04:34:52.591Z,5.32
2023-03-26T04:37:32.391Z,5.28
2023-03-26T04:40:00.527Z,5.48
2023-03-26T04:42:28.772Z,5.66
2023-03-26T04:44:55.581Z,5.42
2023-03-26T04:47:23.557Z,5.42
2023-03-26T04:49:50.720Z,5.33
2023-03-26T04:52:17.677Z,6.14
2023-03-26T04:54:45.693Z,6.11
2023-03-26T04:57:27.592Z,6.18
2023-03-26T04:59:54.415Z,6.29
2023-03-26T05:02:21.289Z,6.23
2023-03-26T05:04:50.077Z,6.20
2023-03-26T05:07:19.966Z,6.34
2023-03-26T05:09:46.885Z,6.26
2023-03-26T05:12:13.998Z,6.37
2023-03-26T05:14:41.028Z,6.46
2023-03-26T05:17:10.991Z,6.52
2023-03-26T05:19:39.768Z,6.52
2023-03-26T05:22:06.810Z,6.55
2023-03-26T05:24:33.951Z,6.57
2023-03-26T05:27:00.840Z,6.72
2023-03-26T05:29:27.983Z,6.81
2023-03-26T05:31:54.812Z,6.82
2023-03-26T05:34:24.264Z,6.97
2023-03-26T05:36:51.154Z,7.06
2023-03-26T05:39:18.189Z,7.10
2023-03-26T05:41:45.178Z,7.30
2023-03-26T05:44:12.072Z,7.61
2023-03-26T05:46:39.022Z,7.75
2023-03-26T05:49:06.299Z,7.91
2023-03-26T05:51:33.159Z,8.00
2023-03-26T05:54:00.258Z,8.27
2023-03-26T05:56:27.164Z,8.41
2023-03-26T05:58:55.702Z,8.34
2023-03-26T06:01:22.785Z,8.59
2023-03-26T06:03:50.666Z,8.63
2023-03-26T06:06:20.531Z,8.76
2023-03-26T06:09:02.060Z,8.77
2023-03-26T06:11:36.556Z,8.83
2023-03-26T06:14:03.432Z,8.93
2023-03-26T06:16:30.305Z,9.02
2023-03-26T06:18:57.929Z,9.12
2023-03-26T06:21:26.348Z,9.30
2023-03-26T06:23:53.464Z,9.31
2023-03-26T06:26:20.843Z,9.63
2023-03-26T06:28:48.248Z,9.68
2023-03-26T06:33:44.327Z,9.90
2023-03-26T06:36:11.500Z,10.27
2023-03-26T06:38:38.382Z,10.48
2023-03-26T06:41:06.802Z,10.82
2023-03-26T06:43:34.014Z,10.96
2023-03-26T06:46:01.722Z,11.06
2023-03-26T06:48:28.860Z,11.17
2023-03-26T06:50:56.102Z,11.38
2023-03-26T06:53:23.133Z,11.64
2023-03-26T06:55:50.126Z,11.85
2023-03-26T06:58:17.396Z,11.93
2023-03-26T07:00:44.350Z,12.18
2023-03-26T07:03:11.808Z,12.27
2023-03-26T07:05:41.533Z,12.22
2023-03-26T07:08:08.901Z,12.18
2023-03-26T07:10:36.020Z,12.13
2023-03-26T07:13:03.184Z,12.05
2023-03-26T07:15:30.524Z,12.17
2023-03-26T07:17:57.577Z,12.47
2023-03-26T07:20:25.221Z,12.65
2023-03-26T07:22:52.758Z,12.67
2023-03-26T07:25:20.586Z,12.91
2023-03-26T07:28:08.805Z,12.96
2023-03-26T07:31:05.492Z,13.22
2023-03-26T07:33:38.880Z,13.11
2023-03-26T07:36:17.224Z,13.29
2023-03-26T07:39:22.566Z,13.46
2023-03-26T07:42:08.726Z,13.73
2023-03-26T07:45:03.228Z,14.09
2023-03-26T07:47:33.867Z,14.65
2023-03-26T07:50:02.943Z,14.48
2023-03-26T07:52:30.531Z,14.72
2023-03-26T07:54:57.865Z,15.23
2023-03-26T07:57:50.732Z,15.04
2023-03-26T08:00:40.795Z,14.81
2023-03-26T08:03:29.812Z,14.19
2023-03-26T08:06:19.785Z,14.04
2023-03-26T08:09:13.491Z,13.59
2023-03-26T08:11:50.962Z,13.70
2023-03-26T08:14:26.203Z,13.62
2023-03-26T08:17:25.663Z,13.69
2023-03-26T08:19:58.133Z,13.88
2023-03-26T08:22:36.764Z,13.90
2023-03-26T08:25:18.644Z,13.89
2023-03-26T08:27:59.129Z,13.77
2023-03-26T08:30:27.402Z,13.68
2023-03-26T08:32:58.355Z,13.68
2023-03-26T08:35:27.402Z,13.49
2023-03-26T08:37:54.603Z,13.47
2023-03-26T08:40:59.998Z,13.43
2023-03-26T08:44:05.415Z,13.32
2023-03-26T08:46:50.820Z,13.53
2023-03-26T08:49:21.924Z,13.80
2023-03-26T08:52:05.179Z,13.89
2023-03-26T08:54:41.370Z,13.82
2023-03-26T08:57:13.951Z,13.48
2023-03-26T09:00:02.580Z,13.43
2023-03-26T09:02:47.130Z,13.48
2023-03-26T09:05:53.150Z,13.22
2023-03-26T09:08:59.208Z,13.50
2023-03-26T09:11:35.145Z,13.89
2023-03-26T09:46:07.427Z,14.21
2023-03-26T09:49:07.152Z,14.24
2023-03-26T09:52:05.857Z,14.37
2023-03-26T09:54:57.754Z,14.89
2023-03-26T09:57:30.835Z,14.45
2023-03-26T10:00:47.449Z,14.62
2023-03-26T10:03:44.045Z,14.14
2023-03-26T10:06:14.214Z,14.29
2023-03-26T10:09:15.399Z,14.69
2023-03-26T10:11:42.290Z,15.51
2023-03-26T10:14:18.263Z,16.64
2023-03-26T10:17:25.799Z,16.20
2023-03-26T10:20:32.765Z,16.98
2023-03-26T10:23:45.776Z,18.23
2023-03-26T10:26:30.718Z,18.68
2023-03-26T10:29:24.213Z,19.03
2023-03-26T10:32:17.058Z,20.01
2023-03-26T10:35:21.900Z,19.55
2023-03-26T10:38:07.020Z,20.14
2023-03-26T10:40:55.454Z,19.21
2023-03-26T10:43:49.783Z,19.60
2023-03-26T10:46:29.937Z,19.13
2023-03-26T10:49:03.515Z,20.28
2023-03-26T10:51:59.616Z,21.36
2023-03-26T10:54:44.328Z,21.13
2023-03-26T10:57:19.968Z,19.52
2023-03-26T10:59:48.993Z,20.36
2023-03-26T11:02:30.435Z,19.75
2023-03-26T11:05:22.734Z,19.61
2023-03-26T11:07:59.116Z,19.08
2023-03-26T11:10:49.791Z,18.40
2023-03-26T11:13:26.482Z,19.13
2023-03-26T11:16:19.701Z,20.43
2023-03-26T11:19:11.154Z,19.39
2023-03-26T11:21:51.072Z,17.67
2023-03-26T11:24:36.288Z,18.28
2023-03-26T11:27:15.565Z,19.75
2023-03-26T11:30:34.987Z,18.57
2023-03-26T11:33:07.763Z,18.39
2023-03-26T11:35:42.704Z,18.78
2023-03-26T11:38:20.558Z,20.34
2023-03-26T11:40:53.203Z,18.62
2023-03-26T11:43:26.682Z,18.07
2023-03-26T11:45:54.129Z,17.28
2023-03-26T11:54:40.398Z,18.15
2023-03-26T11:57:13.840Z,18.15
2023-03-26T11:59:57.661Z,17.05
2023-03-26T12:02:35.722Z,17.63
2023-03-26T12:05:12.154Z,18.77
2023-03-26T12:08:00.292Z,18.12
2023-03-26T12:10:39.684Z,18.27
2023-03-26T12:13:22.003Z,18.05
2023-03-26T12:15:49.841Z,18.02
2023-03-26T12:18:34.834Z,17.58
2023-03-26T12:21:08.335Z,17.71
2023-03-26T12:23:57.157Z,17.77
2023-03-26T12:26:36.080Z,18.75
2023-03-26T12:29:15.058Z,18.26
2023-03-26T12:32:06.125Z,17.93
2023-03-26T12:34:37.508Z,17.56
2023-03-26T12:37:06.357Z,16.74
2023-03-26T12:40:10.011Z,16.62
2023-03-26T12:44:47.043Z,16.67
2023-03-26T12:45:20.120Z,16.42
2023-03-26T12:47:59.920Z,16.48
2023-03-26T12:50:59.458Z,16.63
2023-03-26T12:53:55.608Z,16.82
2023-03-26T12:56:40.895Z,17.03
2023-03-26T12:59:38.720Z,17.25
2023-03-26T13:02:08.466Z,19.34
2023-03-26T13:05:04.915Z,18.08
2023-03-26T13:07:52.038Z,17.51
2023-03-26T13:10:26.571Z,17.11
2023-03-26T13:13:32.539Z,16.82
2023-03-26T13:16:17.002Z,16.74
2023-03-26T13:18:52.769Z,16.63
2023-03-26T13:21:57.480Z,16.63
2023-03-26T13:24:33.882Z,17.62
2023-03-26T13:27:19.780Z,19.36
2023-03-26T13:30:21.523Z,19.39
2023-03-26T13:32:57.828Z,18.34
2023-03-26T13:35:41.507Z,18.43
2023-03-26T13:38:59.157Z,19.64
2023-03-26T13:41:27.927Z,19.94
2023-03-26T13:44:09.760Z,20.59
2023-03-26T13:46:52.497Z,20.50
2023-03-26T13:49:37.544Z,20.05
2023-03-26T13:52:12.820Z,20.21
2023-03-26T13:54:44.629Z,19.99
2023-03-26T13:57:29.971Z,20.10
2023-03-26T14:00:06.769Z,18.88
2023-03-26T14:02:40.631Z,18.05
2023-03-26T14:05:14.391Z,17.85
2023-03-26T14:08:17.173Z,18.42
2023-03-26T14:10:54.094Z,18.33
2023-03-26T14:13:49.890Z,19.78
2023-03-26T14:16:22.427Z,20.82
2023-03-26T14:18:54.808Z,20.50
2023-03-26T14:21:40.899Z,20.94
2023-03-26T14:24:53.116Z,21.03
2023-03-26T14:27:45.349Z,21.05
2023-03-26T14:30:46.036Z,19.22
2023-03-26T14:33:39.001Z,18.44
2023-03-26T14:36:09.331Z,18.50
2023-03-26T14:39:30.719Z,19.76
2023-03-26T15:22:40.448Z,18.72
2023-03-26T15:25:31.877Z,18.03
2023-03-26T15:28:22.663Z,17.90
2023-03-26T15:31:06.764Z,17.73
2023-03-26T15:34:10.502Z,17.49
2023-03-26T15:37:07.701Z,18.32
2023-03-26T15:39:59.799Z,18.17
2023-03-26T15:42:30.360Z,17.54
2023-03-26T15:45:22.510Z,17.30
2023-03-26T15:48:03.513Z,17.51
2023-03-26T15:51:04.538Z,17.53
2023-03-26T15:53:38.871Z,17.46
2023-03-26T15:56:34.742Z,17.36
2023-03-26T15:59:15.773Z,17.29
2023-03-26T16:02:02.533Z,17.21
2023-03-26T16:04:55.821Z,17.10
2023-03-26T16:07:42.476Z,17.15
2023-03-26T16:10:22.243Z,17.20
2023-03-26T16:13:21.983Z,17.36
2023-03-26T16:16:04.896Z,17.40
2023-03-26T16:18:39.414Z,17.11
2023-03-26T16:21:32.213Z,16.66
2023-03-26T16:24:03.717Z,16.48
2023-03-26T16:26:55.223Z,16.25
2023-03-26T16:29:31.053Z,16.11
2023-03-26T16:32:26.165Z,16.00
2023-03-26T16:35:03.148Z,15.82
2023-03-26T16:37:36.921Z,15.79
2023-03-26T16:40:18.742Z,15.71
2023-03-26T16:43:13.974Z,15.62
2023-03-26T16:46:06.462Z,15.55
2023-03-26T16:49:04.447Z,15.48
2023-03-26T16:51:51.007Z,15.40
2023-03-26T16:54:47.858Z,15.32
2023-03-26T16:57:24.243Z,15.23
2023-03-26T17:00:06.363Z,15.16
2023-03-26T17:02:43.120Z,15.10
2023-03-26T17:05:18.276Z,15.03
2023-03-26T17:08:14.191Z,14.95
2023-03-26T17:11:01.113Z,14.91
2023-03-26T17:13:42.002Z,14.82
2023-03-26T17:16:23.056Z,14.61
2023-03-26T17:19:04.398Z,14.44
2023-03-26T17:21:47.286Z,14.32
2023-03-26T17:24:43.049Z,14.14
2023-03-26T17:27:44.538Z,14.08
2023-03-26T17:30:46.840Z,14.01
2023-03-26T17:33:24.261Z,13.98
2023-03-26T17:36:12.132Z,13.97
2023-03-26T17:38:39.825Z,13.97
2023-03-26T17:41:16.485Z,13.90
2023-03-26T17:43:52.739Z,13.86
2023-03-26T17:46:43.101Z,13.91
2023-03-26T17:49:13.973Z,13.87
2023-03-26T17:52:00.259Z,13.84
2023-03-26T17:54:35.335Z,13.83
2023-03-26T17:57:13.135Z,13.79
2023-03-26T17:59:43.698Z,13.77
2023-03-26T18:02:19.362Z,13.76
2023-03-26T18:04:50.720Z,13.71
2023-03-26T18:07:42.493Z,13.68
2023-03-26T18:10:50.550Z,13.64
2023-03-26T18:13:24.248Z,13.60
2023-03-26T18:16:25.402Z,13.56
2023-03-26T18:19:05.798Z,13.60
2023-03-26T18:21:40.184Z,13.56
2023-03-26T18:24:15.129Z,13.53
2023-03-26T18:26:54.528Z,13.55
2023-03-26T18:29:28.461Z,13.51
2023-03-26T18:32:22.716Z,13.51
2023-03-26T18:34:58.425Z,13.51
2023-03-26T18:37:36.765Z,13.39
2023-03-26T18:40:35.288Z,13.52
2023-03-26T18:43:04.166Z,13.58
2023-03-26T18:45:41.887Z,13.58
2023-03-26T18:48:20.926Z,13.48
2023-03-26T18:51:04.974Z,13.42
2023-03-26T18:53:48.704Z,13.51
2023-03-26T18:56:31.196Z,13.53
2023-03-26T18:59:01.210Z,13.50
2023-03-26T19:01:33.191Z,13.51
2023-03-26T19:04:06.548Z,13.54
2023-03-26T19:06:39.140Z,13.54
2023-03-26T19:09:28.067Z,13.53
2023-03-26T19:12:36.521Z,13.47
2023-03-26T19:15:11.238Z,13.45
2023-03-26T19:17:58.465Z,13.48
2023-03-26T19:20:34.423Z,13.50
2023-03-26T19:23:02.557Z,13.50
2023-03-26T19:25:38.430Z,13.48
2023-03-26T19:28:07.279Z,13.48
2023-03-26T19:30:41.155Z,13.31
2023-03-26T19:33:21.323Z,13.34
2023-03-26T19:36:05.847Z,13.26
2023-03-26T19:39:14.735Z,13.24
2023-03-26T19:41:52.601Z,13.11
2023-03-26T19:44:32.171Z,13.04
2023-03-26T19:47:35.274Z,13.11
2023-03-26T19:50:34.274Z,13.08
2023-03-26T19:53:16.614Z,13.07
2023-03-26T19:56:13.349Z,13.02
2023-03-26T19:58:43.182Z,13.02
2023-03-26T20:01:20.894Z,13.06
2023-03-26T20:03:52.204Z,13.03
2023-03-26T20:06:30.766Z,12.95
2023-03-26T20:09:02.501Z,12.97
2023-03-26T20:11:40.000Z,12.92
2023-03-26T20:14:13.813Z,12.90
2023-03-26T20:16:42.925Z,12.85
2023-03-26T20:19:11.860Z,12.84
2023-03-26T20:21:40.634Z,12.75
2023-03-26T20:24:15.206Z,12.72
2023-03-26T20:26:44.620Z,12.71
2023-03-26T20:29:16.586Z,12.58
2023-03-26T20:31:44.808Z,12.59
2023-03-26T20:34:17.198Z,12.59
2023-03-26T20:36:45.732Z,12.60
2023-03-26T20:39:13.754Z,12.64
2023-03-26T20:41:46.542Z,12.57
2023-03-26T20:44:17.288Z,12.63
2023-03-26T20:46:45.461Z,12.63
2023-03-26T20:49:15.075Z,12.63
2023-03-26T20:51:42.638Z,12.62
2023-03-26T20:54:22.097Z,12.63
2023-03-26T20:56:49.840Z,12.56
2023-03-26T20:59:21.831Z,12.60
2023-03-26T21:01:50.406Z,12.59
2023-03-26T21:04:19.252Z,12.64
2023-03-26T21:06:46.579Z,12.68
2023-03-26T21:09:17.555Z,12.69
2023-03-26T21:12:05.825Z,12.71
2023-03-26T21:14:33.474Z,12.66
2023-03-26T21:17:01.346Z,12.56
2023-03-26T21:19:29.174Z,12.50
2023-03-26T21:22:11.401Z,12.55
2023-03-26T21:24:44.215Z,12.61
2023-03-26T21:27:36.114Z,12.58
2023-03-26T21:30:14.376Z,12.52
2023-03-26T21:32:46.140Z,12.48
2023-03-26T21:35:14.794Z,12.37
2023-03-26T21:37:44.082Z,12.28
2023-03-26T21:40:16.900Z,12.23
2023-03-26T21:42:46.808Z,12.15
2023-03-26T21:45:14.402Z,12.13
2023-03-26T21:47:41.896Z,12.08
2023-03-26T21:50:12.510Z,11.95
2023-03-26T21:52:47.092Z,11.86
2023-03-26T21:55:24.398Z,11.76
2023-03-26T21:57:53.935Z,11.79
2023-03-26T22:00:33.511Z,11.83
2023-03-26T22:03:13.826Z,11.63
2023-03-26T22:05:52.145Z,11.70
2023-03-26T22:08:37.234Z,11.73
2023-03-26T22:11:05.172Z,11.71
2023-03-26T22:13:32.033Z,11.77
2023-03-26T22:15:59.525Z,11.78
2023-03-26T22:18:30.004Z,11.83
2023-03-26T22:20:59.188Z,11.75
2023-03-26T22:23:27.577Z,11.74
2023-03-26T22:25:54.692Z,11.74
2023-03-26T22:28:21.984Z,11.63
2023-03-26T22:30:48.944Z,11.68
2023-03-26T22:33:17.953Z,11.66
2023-03-26T22:35:45.083Z,11.61
2023-03-26T22:38:12.282Z,11.57
2023-03-26T22:40:40.737Z,11.49
2023-03-26T22:43:07.856Z,11.32
2023-03-26T22:45:34.977Z,11.18
2023-03-26T22:48:04.695Z,11.15
2023-03-26T22:50:32.902Z,11.11
2023-03-26T22:53:00.066Z,11.09
2023-03-26T22:55:28.331Z,11.04
2023-03-26T22:57:56.964Z,11.02
2023-03-26T23:00:26.485Z,10.93
2023-03-26T23:02:55.988Z,10.92
2023-03-26T23:05:23.610Z,10.82
2023-03-26T23:07:52.258Z,10.83
2023-03-26T23:10:19.321Z,10.86
2023-03-26T23:12:46.451Z,10.82
2023-03-26T23:15:14.130Z,10.75
2023-03-26T23:17:43.338Z,10.83
2023-03-26T23:20:14.619Z,10.82
2023-03-26T23:22:43.022Z,10.77
2023-03-26T23:25:11.399Z,10.79
2023-03-26T23:27:40.125Z,10.75
2023-03-26T23:30:08.338Z,10.62
2023-03-26T23:32:38.000Z,10.59
2023-03-26T23:35:06.153Z,10.52
2023-03-26T23:37:35.201Z,10.49
2023-03-26T23:40:10.279Z,10.41
2023-03-26T23:42:38.069Z,10.40
2023-03-26T23:45:06.194Z,10.43
2023-03-26T23:47:34.474Z,10.44
2023-03-26T23:50:05.126Z,10.40
2023-03-26T23:52:32.309Z,10.33
2023-03-26T23:55:02.789Z,10.46
2023-03-26T23:57:30.631Z,10.43
2023-03-26T23:59:58.841Z,10.45
